Time;durP1;ratioP1;P1;durP2;ratioP2;P2;SDS_P1;SDS_P2;PMS_P1;PMS_P2;Temp;Humidity;BMP_temperature;BMP_pressure;BME280_temperature;BME280_humidity;BME280_pressure;Samples;Min_cycle;Max_cycle;Signal;HPM_P1;HPM_P2
2022/04/24 00:01:15;;;;;;;;;;;12.80;44.50;;;;;;4963964;28;19929;-76
2022/04/24 00:03:42;;;;;;;;;;;12.90;44.50;;;;;;4963623;28;20011;-77
2022/04/24 00:06:08;;;;;;;;;;;12.90;43.90;;;;;;4959450;28;20025;-76
2022/04/24 00:08:35;;;;;;;;;;;12.90;43.80;;;;;;4961614;28;20051;-76
2022/04/24 00:11:03;;;;;;;;;;;12.90;43.20;;;;;;4961357;28;19936;-75
2022/04/24 00:13:37;;;;;;;;;;;12.90;42.10;;;;;;4959312;28;19926;-76
2022/04/24 00:16:04;;;;;;;;;;;13.00;41.90;;;;;;4963899;28;20013;-76
2022/04/24 00:18:30;;;;;;;;;;;13.00;41.50;;;;;;4960825;28;20391;-77
2022/04/24 00:20:57;;;;;;;;;;;13.00;40.90;;;;;;4961583;28;20517;-75
2022/04/24 00:23:24;;;;;;;;;;;13.00;40.90;;;;;;4963796;28;19935;-76
2022/04/24 00:25:50;;;;;;;;;;;13.00;40.10;;;;;;4959811;28;19934;-75
2022/04/24 00:28:18;;;;;;;;;;;13.10;39.80;;;;;;4955284;28;20010;-76
2022/04/24 00:30:45;;;;;;;;;;;13.00;39.50;;;;;;4961683;28;20588;-76
2022/04/24 00:33:12;;;;;;;;;;;13.00;38.70;;;;;;4959900;28;19925;-79
2022/04/24 00:35:39;;;;;;;;;;;13.10;38.90;;;;;;4958278;28;19938;-78
2022/04/24 00:38:05;;;;;;;;;;;13.10;38.00;;;;;;4961648;28;19930;-78
2022/04/24 00:40:32;;;;;;;;;;;13.10;37.40;;;;;;4960625;28;19926;-77
2022/04/24 00:42:59;;;;;;;;;;;13.10;36.90;;;;;;4960733;28;19930;-78
2022/04/24 00:45:27;;;;;;;;;;;13.10;37.00;;;;;;4958607;28;19964;-75
2022/04/24 00:47:54;;;;;;;;;;;13.10;36.90;;;;;;4958177;28;19933;-79
2022/04/24 00:50:20;;;;;;;;;;;13.10;36.90;;;;;;4969873;28;20011;-76
2022/04/24 00:52:47;;;;;;;;;;;13.00;36.40;;;;;;4972040;28;19926;-76
2022/04/24 00:55:14;;;;;;;;;;;13.00;36.80;;;;;;4973636;28;19934;-73
2022/04/24 00:57:41;;;;;;;;;;;12.90;37.00;;;;;;4966747;28;19926;-77
2022/04/24 01:00:09;;;;;;;;;;;12.90;37.10;;;;;;4979161;28;19936;-76
2022/04/24 01:02:38;;;;;;;;;;;12.90;37.00;;;;;;4964613;28;19933;-75
2022/04/24 01:05:05;;;;;;;;;;;12.70;37.20;;;;;;4967551;28;19930;-76
2022/04/24 01:07:32;;;;;;;;;;;12.80;37.30;;;;;;4969806;28;19953;-75
2022/04/24 01:10:00;;;;;;;;;;;12.70;37.30;;;;;;4965844;28;20305;-76
2022/04/24 01:12:26;;;;;;;;;;;12.60;37.10;;;;;;4988162;28;19926;-75
2022/04/24 01:14:53;;;;;;;;;;;12.60;37.10;;;;;;4965572;28;20399;-76
2022/04/24 01:17:20;;;;;;;;;;;12.50;37.50;;;;;;4962925;28;19934;-76
2022/04/24 01:19:48;;;;;;;;;;;12.40;37.50;;;;;;4964756;28;20473;-76
2022/04/24 01:22:17;;;;;;;;;;;12.40;38.00;;;;;;4974686;28;20017;-79
2022/04/24 01:24:44;;;;;;;;;;;12.40;37.90;;;;;;4966646;28;19945;-76
2022/04/24 01:27:11;;;;;;;;;;;12.30;38.10;;;;;;4972806;28;19937;-76
2022/04/24 01:29:37;;;;;;;;;;;12.20;38.10;;;;;;4962472;28;20012;-75
2022/04/24 01:32:04;;;;;;;;;;;12.20;38.60;;;;;;4966169;28;21782;-75
2022/04/24 01:34:31;;;;;;;;;;;12.10;38.60;;;;;;4964703;28;19926;-75
2022/04/24 01:36:58;;;;;;;;;;;12.10;38.30;;;;;;4971034;28;19934;-76
2022/04/24 01:39:26;;;;;;;;;;;12.00;38.80;;;;;;4977157;28;19931;-76
2022/04/24 01:41:55;;;;;;;;;;;11.90;39.10;;;;;;4973724;28;20008;-76
2022/04/24 01:44:22;;;;;;;;;;;11.80;39.70;;;;;;4970030;28;19930;-75
2022/04/24 01:46:49;;;;;;;;;;;11.70;39.70;;;;;;4966216;28;20012;-75
2022/04/24 01:49:15;;;;;;;;;;;11.60;39.90;;;;;;4970506;28;19985;-74
2022/04/24 01:51:44;;;;;;;;;;;11.60;40.00;;;;;;4965345;28;19932;-75
2022/04/24 01:54:10;;;;;;;;;;;11.50;40.20;;;;;;4970879;28;20300;-76
2022/04/24 01:56:38;;;;;;;;;;;11.40;40.40;;;;;;4962952;28;20457;-75
2022/04/24 01:59:05;;;;;;;;;;;11.40;40.40;;;;;;4969148;28;19929;-76
2022/04/24 02:01:31;;;;;;;;;;;11.30;40.80;;;;;;4970089;28;20017;-76
2022/04/24 02:03:58;;;;;;;;;;;11.30;40.60;;;;;;4961969;28;20023;-76
2022/04/24 02:06:26;;;;;;;;;;;11.30;40.70;;;;;;4962176;28;20301;-76
2022/04/24 02:08:53;;;;;;;;;;;11.30;40.80;;;;;;4972090;28;19930;-76
2022/04/24 02:11:19;;;;;;;;;;;11.30;41.10;;;;;;4967137;28;19930;-77
2022/04/24 02:13:47;;;;;;;;;;;11.20;41.10;;;;;;4967181;28;20423;-76
2022/04/24 02:16:14;;;;;;;;;;;11.20;41.40;;;;;;4963839;28;19934;-77
2022/04/24 02:18:40;;;;;;;;;;;11.10;41.60;;;;;;4967392;28;19964;-75
2022/04/24 02:21:07;;;;;;;;;;;11.10;41.60;;;;;;4964930;28;19926;-76
2022/04/24 02:23:34;;;;;;;;;;;11.10;41.70;;;;;;4966108;28;19926;-77
2022/04/24 02:26:00;;;;;;;;;;;11.00;41.70;;;;;;4959362;28;20296;-77
2022/04/24 02:28:27;;;;;;;;;;;11.10;42.00;;;;;;4965778;28;19941;-77
2022/04/24 02:30:55;;;;;;;;;;;11.00;42.00;;;;;;4970302;28;19961;-80
2022/04/24 02:33:22;;;;;;;;;;;11.00;42.10;;;;;;4966357;28;20025;-77
2022/04/24 02:35:49;;;;;;;;;;;11.00;42.30;;;;;;4959122;28;19926;-77
2022/04/24 02:38:15;;;;;;;;;;;11.00;42.00;;;;;;4962369;28;20294;-75
2022/04/24 02:40:42;;;;;;;;;;;11.00;42.20;;;;;;4964604;28;19926;-77
2022/04/24 02:43:09;;;;;;;;;;;11.00;42.10;;;;;;4964143;28;19934;-75
2022/04/24 02:45:35;;;;;;;;;;;10.90;42.30;;;;;;4966431;28;19926;-76
2022/04/24 02:48:04;;;;;;;;;;;10.90;42.50;;;;;;4972226;28;19926;-77
2022/04/24 02:50:31;;;;;;;;;;;10.80;42.60;;;;;;4960676;28;19930;-75
2022/04/24 02:52:57;;;;;;;;;;;10.80;42.50;;;;;;4963759;28;20331;-75
2022/04/24 02:55:25;;;;;;;;;;;10.90;42.40;;;;;;4961689;28;19938;-75
2022/04/24 02:57:51;;;;;;;;;;;10.90;42.50;;;;;;4962338;28;19957;-75
2022/04/24 03:00:22;;;;;;;;;;;10.90;42.40;;;;;;4961938;28;20361;-74
2022/04/24 03:02:49;;;;;;;;;;;11.00;42.40;;;;;;4964757;28;19934;-75
2022/04/24 03:05:18;;;;;;;;;;;10.80;42.80;;;;;;4961642;28;19933;-75
2022/04/24 03:07:45;;;;;;;;;;;10.80;43.00;;;;;;4963763;28;19926;-75
2022/04/24 03:10:13;;;;;;;;;;;10.70;43.10;;;;;;4963260;28;20288;-75
2022/04/24 03:12:42;;;;;;;;;;;10.70;43.00;;;;;;4961609;28;19934;-75
2022/04/24 03:15:10;;;;;;;;;;;10.80;43.10;;;;;;4959433;28;19926;-75
2022/04/24 03:17:37;;;;;;;;;;;10.80;43.30;;;;;;4960877;28;19930;-75
2022/04/24 03:20:04;;;;;;;;;;;10.80;42.90;;;;;;4969042;28;19926;-75
2022/04/24 03:22:33;;;;;;;;;;;10.80;43.00;;;;;;4963968;28;19926;-75
2022/04/24 03:25:00;;;;;;;;;;;10.90;42.90;;;;;;4962415;28;19926;-75
2022/04/24 03:27:27;;;;;;;;;;;10.90;43.00;;;;;;4961958;28;20020;-74
2022/04/24 03:29:53;;;;;;;;;;;10.90;42.90;;;;;;4965082;28;20385;-74
2022/04/24 03:32:20;;;;;;;;;;;10.90;42.90;;;;;;4966083;28;19926;-74
2022/04/24 03:34:47;;;;;;;;;;;11.00;43.00;;;;;;4960617;28;19941;-75
2022/04/24 03:37:13;;;;;;;;;;;11.00;43.00;;;;;;4962054;28;20274;-75
2022/04/24 03:39:41;;;;;;;;;;;10.90;43.20;;;;;;4961768;28;20377;-75
2022/04/24 03:42:08;;;;;;;;;;;10.90;43.20;;;;;;4965601;28;20393;-75
2022/04/24 03:44:35;;;;;;;;;;;11.00;43.20;;;;;;4960925;28;19930;-74
2022/04/24 03:47:02;;;;;;;;;;;11.00;42.80;;;;;;4960364;28;19933;-75
2022/04/24 03:49:28;;;;;;;;;;;11.00;42.80;;;;;;4960185;28;19926;-75
2022/04/24 03:51:55;;;;;;;;;;;11.00;43.00;;;;;;4959876;28;19926;-75
2022/04/24 03:54:22;;;;;;;;;;;11.00;43.30;;;;;;4959963;28;20025;-75
2022/04/24 03:56:50;;;;;;;;;;;11.10;42.90;;;;;;4961546;28;19944;-75
2022/04/24 03:59:16;;;;;;;;;;;11.10;42.90;;;;;;4968213;28;20021;-75
2022/04/24 04:01:43;;;;;;;;;;;11.10;42.60;;;;;;4964232;28;20133;-75
2022/04/24 04:04:10;;;;;;;;;;;11.10;43.10;;;;;;4959532;28;20739;-75
2022/04/24 04:06:36;;;;;;;;;;;11.10;42.80;;;;;;4960317;28;19930;-75
2022/04/24 04:09:03;;;;;;;;;;;11.10;42.90;;;;;;4961323;28;19933;-75
2022/04/24 04:11:30;;;;;;;;;;;11.10;43.30;;;;;;4965848;28;19933;-75
2022/04/24 04:13:58;;;;;;;;;;;11.10;43.50;;;;;;4963465;28;19968;-74
2022/04/24 04:16:25;;;;;;;;;;;11.10;43.20;;;;;;4957764;28;19930;-75
2022/04/24 04:18:52;;;;;;;;;;;11.10;43.20;;;;;;4959540;28;19930;-75
2022/04/24 04:21:18;;;;;;;;;;;11.10;43.20;;;;;;4959156;28;19927;-75
2022/04/24 04:23:45;;;;;;;;;;;11.10;42.90;;;;;;4961704;28;19941;-74
2022/04/24 04:26:12;;;;;;;;;;;11.10;43.30;;;;;;4958967;28;20033;-75
2022/04/24 04:28:39;;;;;;;;;;;11.00;43.40;;;;;;4966939;28;19994;-75
2022/04/24 04:31:07;;;;;;;;;;;11.00;43.20;;;;;;4962449;28;19988;-75
2022/04/24 04:33:35;;;;;;;;;;;11.00;43.70;;;;;;4960171;28;20305;-76
2022/04/24 04:36:02;;;;;;;;;;;11.00;43.70;;;;;;4962838;28;20454;-76
2022/04/24 04:38:28;;;;;;;;;;;11.00;43.50;;;;;;4971454;28;19936;-76
2022/04/24 04:40:55;;;;;;;;;;;10.90;43.50;;;;;;4961586;28;19945;-78
2022/04/24 04:43:22;;;;;;;;;;;10.90;43.60;;;;;;4975197;28;19930;-78
2022/04/24 04:45:49;;;;;;;;;;;10.90;43.80;;;;;;4959746;28;19934;-75
2022/04/24 04:48:17;;;;;;;;;;;10.90;43.70;;;;;;4958697;28;19988;-76
2022/04/24 04:50:43;;;;;;;;;;;10.90;44.10;;;;;;4960863;28;19934;-75
2022/04/24 04:53:10;;;;;;;;;;;10.90;43.50;;;;;;4961004;28;20373;-76
2022/04/24 04:55:37;;;;;;;;;;;10.90;43.90;;;;;;4962312;28;20013;-75
2022/04/24 04:58:03;;;;;;;;;;;10.90;43.60;;;;;;4964902;28;19926;-74
2022/04/24 05:00:30;;;;;;;;;;;10.90;43.50;;;;;;4957928;28;20000;-74
2022/04/24 05:02:57;;;;;;;;;;;10.80;43.60;;;;;;4961140;28;19926;-76
2022/04/24 05:05:25;;;;;;;;;;;10.80;43.90;;;;;;4959735;28;20290;-76
2022/04/24 05:07:52;;;;;;;;;;;10.80;44.10;;;;;;4958913;28;19926;-77
2022/04/24 05:10:19;;;;;;;;;;;10.90;44.50;;;;;;4959991;28;20381;-76
2022/04/24 05:12:46;;;;;;;;;;;10.80;44.00;;;;;;4959537;28;19972;-77
2022/04/24 05:15:14;;;;;;;;;;;10.80;44.30;;;;;;4959625;28;19984;-76
2022/04/24 05:17:41;;;;;;;;;;;10.80;44.00;;;;;;4963901;28;20064;-76
2022/04/24 05:20:10;;;;;;;;;;;10.80;43.60;;;;;;4965164;28;19933;-75
2022/04/24 05:22:38;;;;;;;;;;;10.90;44.30;;;;;;4966086;28;19930;-76
2022/04/24 05:25:09;;;;;;;;;;;10.90;44.90;;;;;;4961449;28;19940;-75
2022/04/24 05:27:36;;;;;;;;;;;10.90;44.20;;;;;;4961302;28;19930;-76
2022/04/24 05:30:07;;;;;;;;;;;10.80;44.00;;;;;;4972191;28;19933;-76
2022/04/24 05:32:38;;;;;;;;;;;10.80;44.40;;;;;;4975217;28;19927;-80
2022/04/24 05:35:05;;;;;;;;;;;10.80;44.00;;;;;;4981271;28;20028;-82
2022/04/24 05:37:32;;;;;;;;;;;10.80;44.50;;;;;;4966258;28;20019;-76
2022/04/24 05:40:00;;;;;;;;;;;10.80;44.30;;;;;;4962133;28;19926;-76
2022/04/24 05:42:27;;;;;;;;;;;10.90;44.50;;;;;;4961725;28;19957;-76
2022/04/24 05:44:54;;;;;;;;;;;11.00;44.70;;;;;;4962312;28;19934;-76
2022/04/24 05:47:20;;;;;;;;;;;11.00;44.20;;;;;;4963720;28;19934;-77
2022/04/24 05:49:47;;;;;;;;;;;11.10;43.90;;;;;;4964965;28;20308;-76
2022/04/24 05:52:14;;;;;;;;;;;11.20;43.40;;;;;;4964286;28;19965;-75
2022/04/24 05:54:40;;;;;;;;;;;11.20;44.10;;;;;;4962089;28;19926;-76
2022/04/24 05:57:08;;;;;;;;;;;11.30;43.40;;;;;;4960580;28;19980;-77
2022/04/24 05:59:35;;;;;;;;;;;11.30;43.50;;;;;;4963213;28;19933;-76
2022/04/24 06:02:02;;;;;;;;;;;11.20;43.80;;;;;;4964032;28;19930;-75
2022/04/24 06:04:30;;;;;;;;;;;11.10;43.90;;;;;;4967140;28;19932;-77
2022/04/24 06:07:00;;;;;;;;;;;11.10;44.90;;;;;;4970960;28;20017;-75
2022/04/24 06:09:26;;;;;;;;;;;11.10;44.40;;;;;;4970736;28;19943;-75
2022/04/24 06:11:58;;;;;;;;;;;11.10;45.10;;;;;;4971683;28;19945;-76
2022/04/24 06:14:26;;;;;;;;;;;11.10;44.90;;;;;;4966505;28;20333;-75
2022/04/24 06:16:52;;;;;;;;;;;11.00;43.90;;;;;;4969567;28;20377;-76
2022/04/24 06:19:19;;;;;;;;;;;10.80;44.10;;;;;;4968570;28;19945;-76
2022/04/24 06:21:46;;;;;;;;;;;11.00;44.90;;;;;;4977780;28;19930;-76
2022/04/24 06:24:13;;;;;;;;;;;10.90;45.10;;;;;;4972741;28;19926;-75
2022/04/24 06:26:41;;;;;;;;;;;10.90;45.10;;;;;;4967062;28;20021;-75
2022/04/24 06:29:08;;;;;;;;;;;10.80;44.80;;;;;;4972331;28;20002;-76
2022/04/24 06:31:36;;;;;;;;;;;11.00;44.90;;;;;;4966327;28;20377;-76
2022/04/24 06:34:03;;;;;;;;;;;11.10;45.10;;;;;;4972590;28;20016;-74
2022/04/24 06:36:29;;;;;;;;;;;10.90;45.40;;;;;;4969334;28;19938;-72
2022/04/24 06:38:56;;;;;;;;;;;11.00;45.50;;;;;;4975054;28;19927;-73
2022/04/24 06:41:23;;;;;;;;;;;10.90;45.60;;;;;;4965245;28;20013;-73
2022/04/24 06:43:49;;;;;;;;;;;10.90;45.20;;;;;;4967242;28;19926;-72
2022/04/24 06:46:16;;;;;;;;;;;11.00;46.00;;;;;;4977289;28;19944;-74
2022/04/24 06:48:44;;;;;;;;;;;11.10;45.40;;;;;;4964279;28;20403;-72
2022/04/24 06:51:11;;;;;;;;;;;11.10;45.60;;;;;;4960202;28;20029;-73
2022/04/24 06:53:39;;;;;;;;;;;11.00;45.80;;;;;;4958593;28;19932;-72
2022/04/24 06:56:06;;;;;;;;;;;11.00;44.90;;;;;;4986917;28;20392;-73
2022/04/24 06:58:33;;;;;;;;;;;11.00;44.80;;;;;;4964806;28;20286;-73
2022/04/24 07:01:00;;;;;;;;;;;11.10;45.50;;;;;;4965565;28;19930;-74
2022/04/24 07:03:29;;;;;;;;;;;11.20;44.20;;;;;;4965529;28;21380;-73
2022/04/24 07:05:57;;;;;;;;;;;11.50;45.30;;;;;;4966476;28;19926;-71
2022/04/24 07:08:25;;;;;;;;;;;12.40;42.60;;;;;;4969246;28;19934;-71
2022/04/24 07:10:53;;;;;;;;;;;13.00;41.40;;;;;;4963680;28;20399;-70
2022/04/24 07:13:19;;;;;;;;;;;13.50;40.70;;;;;;4962436;28;19926;-71
2022/04/24 07:15:47;;;;;;;;;;;13.80;40.30;;;;;;4963189;28;19931;-71
2022/04/24 07:18:13;;;;;;;;;;;14.20;37.90;;;;;;4965136;28;19933;-71
2022/04/24 07:20:40;;;;;;;;;;;14.00;38.30;;;;;;4962603;28;19934;-70
2022/04/24 07:23:08;;;;;;;;;;;13.60;38.80;;;;;;4967450;28;19940;-69
2022/04/24 07:25:39;;;;;;;;;;;14.20;39.00;;;;;;4968352;28;20291;-69
2022/04/24 07:28:06;;;;;;;;;;;14.50;37.60;;;;;;4959977;28;20220;-69
2022/04/24 07:30:32;;;;;;;;;;;13.90;38.40;;;;;;4966053;28;20047;-69
2022/04/24 07:33:00;;;;;;;;;;;14.20;37.40;;;;;;4962244;28;19926;-69
2022/04/24 07:35:27;;;;;;;;;;;13.80;39.20;;;;;;4964735;28;20300;-70
2022/04/24 07:37:54;;;;;;;;;;;13.90;38.10;;;;;;4966192;28;20337;-71
2022/04/24 07:40:23;;;;;;;;;;;14.80;38.00;;;;;;4966899;28;20278;-70
2022/04/24 07:42:51;;;;;;;;;;;15.20;36.40;;;;;;4965706;28;19934;-72
2022/04/24 07:45:18;;;;;;;;;;;15.00;36.10;;;;;;4960401;28;20003;-73
2022/04/24 07:47:46;;;;;;;;;;;15.30;36.20;;;;;;4959208;28;19941;-71
2022/04/24 07:50:13;;;;;;;;;;;15.00;37.40;;;;;;4960832;28;19927;-72
2022/04/24 07:52:39;;;;;;;;;;;15.20;35.20;;;;;;4963594;28;20061;-73
2022/04/24 07:55:06;;;;;;;;;;;15.10;36.80;;;;;;4964801;28;19926;-73
2022/04/24 07:57:34;;;;;;;;;;;15.10;35.60;;;;;;4968339;28;19926;-74
2022/04/24 08:00:01;;;;;;;;;;;15.20;35.80;;;;;;4966307;28;19943;-73
2022/04/24 08:02:28;;;;;;;;;;;15.10;35.80;;;;;;4963148;28;20008;-72
2022/04/24 08:04:55;;;;;;;;;;;16.00;35.40;;;;;;4962472;28;19932;-72
2022/04/24 08:07:22;;;;;;;;;;;15.10;35.50;;;;;;4965634;28;20016;-71
2022/04/24 08:09:50;;;;;;;;;;;15.10;35.90;;;;;;4958832;28;20349;-72
2022/04/24 08:12:17;;;;;;;;;;;15.60;35.40;;;;;;4966032;28;20024;-72
2022/04/24 08:14:45;;;;;;;;;;;15.00;35.80;;;;;;4963692;28;20381;-74
2022/04/24 08:17:12;;;;;;;;;;;15.10;35.30;;;;;;4962690;28;20362;-75
2022/04/24 08:19:39;;;;;;;;;;;14.50;36.60;;;;;;4955614;28;19930;-73
2022/04/24 08:22:05;;;;;;;;;;;15.00;37.20;;;;;;4969957;28;19934;-72
2022/04/24 08:24:32;;;;;;;;;;;15.50;36.60;;;;;;4961083;28;19999;-73
2022/04/24 08:26:59;;;;;;;;;;;15.90;35.50;;;;;;4962870;28;19927;-70
2022/04/24 08:29:25;;;;;;;;;;;15.30;36.60;;;;;;4960241;28;19927;-71
2022/04/24 08:31:53;;;;;;;;;;;15.50;34.70;;;;;;4959946;28;19926;-71
2022/04/24 08:34:22;;;;;;;;;;;15.20;35.70;;;;;;4960609;28;20021;-72
2022/04/24 08:36:48;;;;;;;;;;;15.30;34.90;;;;;;4998807;23;20416;-70
2022/04/24 08:39:15;;;;;;;;;;;16.40;34.40;;;;;;4999584;28;19957;-70
2022/04/24 08:41:42;;;;;;;;;;;16.40;34.40;;;;;;4993436;28;19933;-70
2022/04/24 08:44:09;;;;;;;;;;;16.20;33.00;;;;;;4999953;28;19926;-72
2022/04/24 08:46:36;;;;;;;;;;;16.20;33.50;;;;;;4991940;28;19941;-71
2022/04/24 08:49:05;;;;;;;;;;;16.20;33.40;;;;;;4996408;28;19926;-71
2022/04/24 08:51:33;;;;;;;;;;;16.50;33.60;;;;;;4994798;28;19995;-71
2022/04/24 08:54:01;;;;;;;;;;;15.80;33.30;;;;;;4976857;28;20176;-70
2022/04/24 08:56:28;;;;;;;;;;;16.00;33.70;;;;;;4976166;28;19926;-71
2022/04/24 08:58:55;;;;;;;;;;;16.20;31.80;;;;;;4979586;28;19979;-70
2022/04/24 09:01:22;;;;;;;;;;;16.10;34.40;;;;;;4988583;28;20516;-70
2022/04/24 09:03:49;;;;;;;;;;;16.30;32.60;;;;;;4977399;28;19930;-70
2022/04/24 09:06:23;;;;;;;;;;;16.50;32.30;;;;;;4975946;28;19933;-70
2022/04/24 09:08:50;;;;;;;;;;;16.70;31.50;;;;;;4979750;28;19934;-71
2022/04/24 09:11:19;;;;;;;;;;;17.10;31.60;;;;;;4972950;28;20385;-71
2022/04/24 09:16:34;;;;;;;;;;;16.40;32.70;;;;;;4982638;28;20403;-73
2022/04/24 09:19:01;;;;;;;;;;;16.60;30.50;;;;;;4979005;28;19940;-74
2022/04/24 09:21:29;;;;;;;;;;;17.00;32.40;;;;;;4983273;28;20419;-71
2022/04/24 09:23:59;;;;;;;;;;;16.20;31.30;;;;;;4985452;28;20415;-71
2022/04/24 09:26:25;;;;;;;;;;;16.20;32.10;;;;;;4982848;28;19936;-71
2022/04/24 09:28:52;;;;;;;;;;;16.20;32.30;;;;;;4977891;28;19940;-72
2022/04/24 09:31:19;;;;;;;;;;;16.90;31.10;;;;;;4979857;28;19940;-72
2022/04/24 09:33:46;;;;;;;;;;;16.20;31.20;;;;;;4986095;28;19955;-71
2022/04/24 09:36:13;;;;;;;;;;;16.60;30.80;;;;;;4975614;28;19929;-71
2022/04/24 09:38:41;;;;;;;;;;;16.60;32.10;;;;;;4981192;28;20404;-71
2022/04/24 09:41:14;;;;;;;;;;;16.30;31.10;;;;;;4975871;28;19926;-72
2022/04/24 09:43:41;;;;;;;;;;;16.20;31.70;;;;;;4979033;28;20031;-72
2022/04/24 09:46:08;;;;;;;;;;;16.00;31.70;;;;;;4974505;28;20136;-70
2022/04/24 09:48:35;;;;;;;;;;;17.10;30.00;;;;;;4978628;28;19933;-69
2022/04/24 09:51:02;;;;;;;;;;;17.10;28.90;;;;;;4973315;28;20355;-69
2022/04/24 09:53:30;;;;;;;;;;;17.40;29.50;;;;;;4978089;28;19926;-69
2022/04/24 09:55:59;;;;;;;;;;;16.60;30.30;;;;;;4971999;28;19996;-70
2022/04/24 09:58:26;;;;;;;;;;;16.90;29.50;;;;;;4978798;28;20024;-72
2022/04/24 10:00:53;;;;;;;;;;;16.40;29.70;;;;;;4977219;28;19926;-71
2022/04/24 10:03:20;;;;;;;;;;;16.20;30.00;;;;;;4973229;28;19945;-70
2022/04/24 10:05:48;;;;;;;;;;;16.00;30.00;;;;;;4974525;28;19926;-71
2022/04/24 10:08:15;;;;;;;;;;;16.00;30.20;;;;;;4983642;28;19932;-72
2022/04/24 10:10:43;;;;;;;;;;;15.90;30.40;;;;;;4979570;28;19938;-72
2022/04/24 10:13:12;;;;;;;;;;;16.00;30.00;;;;;;4975117;28;20328;-70
2022/04/24 10:15:44;;;;;;;;;;;16.60;29.70;;;;;;4978469;28;19930;-71
2022/04/24 10:18:24;;;;;;;;;;;16.50;29.60;;;;;;4978653;28;19943;-71
2022/04/24 10:20:59;;;;;;;;;;;16.50;29.30;;;;;;4976070;28;19975;-70
2022/04/24 10:23:29;;;;;;;;;;;16.40;30.50;;;;;;4982958;28;19930;-72
2022/04/24 10:25:55;;;;;;;;;;;16.50;28.90;;;;;;4985916;28;19930;-72
2022/04/24 10:28:24;;;;;;;;;;;16.30;27.90;;;;;;4996579;28;20021;-72
2022/04/24 10:31:00;;;;;;;;;;;16.50;28.70;;;;;;4981372;28;20396;-71
2022/04/24 10:33:28;;;;;;;;;;;16.70;28.00;;;;;;4977186;28;20384;-71
2022/04/24 10:35:59;;;;;;;;;;;16.50;28.90;;;;;;4975815;28;19926;-70
2022/04/24 10:38:27;;;;;;;;;;;16.90;28.90;;;;;;4971182;28;19948;-70
2022/04/24 10:40:58;;;;;;;;;;;17.10;29.90;;;;;;4974634;28;19930;-70
2022/04/24 10:43:26;;;;;;;;;;;16.80;27.90;;;;;;4971321;28;20240;-71
2022/04/24 10:45:53;;;;;;;;;;;16.80;28.70;;;;;;4976842;28;20402;-70
2022/04/24 10:48:21;;;;;;;;;;;16.70;28.20;;;;;;4981766;28;19969;-71
2022/04/24 10:50:48;;;;;;;;;;;16.80;28.30;;;;;;4982416;28;19926;-72
2022/04/24 10:53:15;;;;;;;;;;;17.00;28.40;;;;;;4971885;28;19926;-70
2022/04/24 10:55:42;;;;;;;;;;;17.20;27.50;;;;;;4981596;28;19930;-69
2022/04/24 10:58:09;;;;;;;;;;;17.30;28.50;;;;;;4986934;28;19930;-70
2022/04/24 11:00:38;;;;;;;;;;;17.40;27.40;;;;;;4985229;28;19986;-72
2022/04/24 11:03:06;;;;;;;;;;;17.30;27.40;;;;;;4984791;28;19926;-74
2022/04/24 11:05:36;;;;;;;;;;;17.10;27.00;;;;;;4972842;28;19934;-70
2022/04/24 11:08:03;;;;;;;;;;;17.40;27.40;;;;;;4983747;28;20011;-73
2022/04/24 11:10:30;;;;;;;;;;;17.50;25.20;;;;;;4990982;28;19934;-71
2022/04/24 11:12:58;;;;;;;;;;;16.90;25.70;;;;;;4983824;28;20032;-73
2022/04/24 11:15:25;;;;;;;;;;;17.10;26.50;;;;;;4978303;28;20021;-71
2022/04/24 11:17:53;;;;;;;;;;;17.30;25.90;;;;;;4971730;28;20305;-71
2022/04/24 11:20:20;;;;;;;;;;;17.70;26.50;;;;;;4974109;28;20319;-71
2022/04/24 11:22:48;;;;;;;;;;;17.30;24.90;;;;;;4976153;28;19930;-71
2022/04/24 11:25:16;;;;;;;;;;;17.80;26.10;;;;;;4970297;28;20628;-71
2022/04/24 11:27:43;;;;;;;;;;;17.40;24.90;;;;;;4984605;28;19929;-71
2022/04/24 11:30:16;;;;;;;;;;;17.80;25.60;;;;;;4977471;28;20372;-70
2022/04/24 11:32:57;;;;;;;;;;;17.80;24.00;;;;;;4973762;28;20365;-70
2022/04/24 11:35:24;;;;;;;;;;;17.70;23.00;;;;;;4970545;28;20464;-71
2022/04/24 11:37:51;;;;;;;;;;;17.80;24.20;;;;;;4973056;28;19933;-74
2022/04/24 11:40:18;;;;;;;;;;;17.80;25.20;;;;;;4978976;28;19960;-70
2022/04/24 11:42:45;;;;;;;;;;;18.00;25.10;;;;;;4971868;28;19926;-71
2022/04/24 11:50:56;;;;;;;;;;;17.80;24.30;;;;;;5032686;28;20073;-70
2022/04/24 11:53:23;;;;;;;;;;;18.20;23.90;;;;;;5038453;28;20389;-70
2022/04/24 11:56:03;;;;;;;;;;;18.10;24.20;;;;;;5011393;28;20304;-70
2022/04/24 11:58:33;;;;;;;;;;;18.20;22.10;;;;;;4974813;28;19926;-71
2022/04/24 12:01:00;;;;;;;;;;;17.60;22.90;;;;;;4982912;28;19926;-71
2022/04/24 12:03:28;;;;;;;;;;;17.60;24.10;;;;;;4978841;28;19926;-71
2022/04/24 12:05:57;;;;;;;;;;;18.10;22.70;;;;;;4970660;28;19949;-70
2022/04/24 12:08:24;;;;;;;;;;;18.00;22.30;;;;;;4978242;28;19932;-70
2022/04/24 12:10:51;;;;;;;;;;;18.10;22.80;;;;;;4980332;28;19926;-70
2022/04/24 12:13:21;;;;;;;;;;;18.30;22.80;;;;;;4978064;28;20020;-70
2022/04/24 12:15:51;;;;;;;;;;;18.30;23.40;;;;;;4981728;28;19926;-71
2022/04/24 12:18:21;;;;;;;;;;;18.40;22.40;;;;;;4978053;28;19926;-70
2022/04/24 12:20:50;;;;;;;;;;;17.90;21.70;;;;;;4978403;28;20316;-72
2022/04/24 12:23:17;;;;;;;;;;;17.40;21.80;;;;;;4977749;28;19926;-70
2022/04/24 12:25:48;;;;;;;;;;;17.50;23.20;;;;;;4981573;28;20712;-71
2022/04/24 12:28:27;;;;;;;;;;;18.00;21.50;;;;;;4988077;27;19979;-70
2022/04/24 12:30:53;;;;;;;;;;;17.90;20.50;;;;;;4981973;28;19941;-71
2022/04/24 12:33:20;;;;;;;;;;;18.40;21.40;;;;;;4988019;28;19979;-70
2022/04/24 12:35:47;;;;;;;;;;;18.00;21.40;;;;;;4979379;28;20269;-70
2022/04/24 12:38:15;;;;;;;;;;;18.10;21.00;;;;;;4973865;28;19926;-70
2022/04/24 12:40:42;;;;;;;;;;;18.50;20.70;;;;;;4981403;28;20021;-70
2022/04/24 12:43:09;;;;;;;;;;;18.90;21.70;;;;;;4975924;28;19930;-71
2022/04/24 12:45:36;;;;;;;;;;;18.80;20.10;;;;;;4979347;28;19926;-69
2022/04/24 12:48:02;;;;;;;;;;;18.80;20.60;;;;;;4984587;28;19926;-70
2022/04/24 12:50:29;;;;;;;;;;;18.40;19.00;;;;;;4982272;28;19930;-70
2022/04/24 12:52:56;;;;;;;;;;;18.10;20.50;;;;;;4976729;28;20017;-69
2022/04/24 12:55:24;;;;;;;;;;;18.00;20.20;;;;;;4981335;28;19930;-70
2022/04/24 12:57:54;;;;;;;;;;;17.50;20.50;;;;;;4985827;28;20285;-70
2022/04/24 13:00:20;;;;;;;;;;;17.50;20.80;;;;;;4982114;28;19926;-70
2022/04/24 13:02:47;;;;;;;;;;;17.90;22.70;;;;;;4980964;28;19926;-71
2022/04/24 13:05:14;;;;;;;;;;;18.50;20.90;;;;;;4974249;28;19975;-71
2022/04/24 13:07:41;;;;;;;;;;;18.50;20.60;;;;;;4971436;28;19933;-70
2022/04/24 13:10:08;;;;;;;;;;;18.40;18.60;;;;;;4974992;28;19933;-70
2022/04/24 13:12:36;;;;;;;;;;;18.80;21.10;;;;;;4969313;28;19926;-70
2022/04/24 13:15:03;;;;;;;;;;;18.80;19.20;;;;;;4973513;28;19933;-70
2022/04/24 13:20:14;;;;;;;;;;;17.80;18.80;;;;;;4984547;28;19933;-70
2022/04/24 13:22:41;;;;;;;;;;;18.20;18.40;;;;;;4979157;28;20024;-70
2022/04/24 13:25:08;;;;;;;;;;;18.00;19.50;;;;;;4973039;28;20365;-70
2022/04/24 13:27:36;;;;;;;;;;;17.90;18.70;;;;;;4982316;28;19925;-70
2022/04/24 13:30:03;;;;;;;;;;;17.90;19.30;;;;;;4981859;28;19930;-71
2022/04/24 13:32:30;;;;;;;;;;;18.60;18.80;;;;;;4972828;28;19980;-70
2022/04/24 13:34:58;;;;;;;;;;;18.60;18.70;;;;;;4980534;28;19933;-70
2022/04/24 13:40:09;;;;;;;;;;;18.10;19.00;;;;;;4981960;28;19932;-70
2022/04/24 13:42:37;;;;;;;;;;;18.20;18.80;;;;;;4980470;28;19926;-70
2022/04/24 13:45:04;;;;;;;;;;;18.70;17.30;;;;;;4979937;28;19932;-71
2022/04/24 13:47:31;;;;;;;;;;;18.70;18.50;;;;;;4980671;28;19933;-70
2022/04/24 13:49:58;;;;;;;;;;;18.60;17.20;;;;;;4977730;28;20020;-71
2022/04/24 13:52:24;;;;;;;;;;;18.70;17.20;;;;;;4978442;28;19949;-67
2022/04/24 13:54:53;;;;;;;;;;;18.80;17.50;;;;;;4974169;28;19930;-67
2022/04/24 13:57:20;;;;;;;;;;;19.10;16.90;;;;;;4979544;28;19949;-68
2022/04/24 13:59:48;;;;;;;;;;;19.50;17.30;;;;;;4970242;28;20612;-70
2022/04/24 14:02:14;;;;;;;;;;;19.30;17.60;;;;;;4978659;28;20401;-70
2022/04/24 14:04:41;;;;;;;;;;;17.90;17.40;;;;;;4984202;28;20022;-70
2022/04/24 14:07:08;;;;;;;;;;;17.70;18.40;;;;;;4983164;28;20304;-70
2022/04/24 14:09:35;;;;;;;;;;;17.70;18.50;;;;;;4975245;28;19932;-70
2022/04/24 14:12:02;;;;;;;;;;;18.10;19.30;;;;;;4974821;28;19926;-70
2022/04/24 14:14:30;;;;;;;;;;;18.40;17.40;;;;;;4985683;28;20393;-72
2022/04/24 14:16:59;;;;;;;;;;;18.60;17.00;;;;;;4972693;28;19930;-73
2022/04/24 14:19:26;;;;;;;;;;;18.50;16.00;;;;;;4987039;28;20392;-72
2022/04/24 14:21:55;;;;;;;;;;;18.80;16.30;;;;;;4985769;28;20064;-72
2022/04/24 14:24:22;;;;;;;;;;;18.90;16.50;;;;;;4990484;28;20401;-72
2022/04/24 14:26:51;;;;;;;;;;;18.60;14.70;;;;;;4974483;28;19933;-72
2022/04/24 14:29:18;;;;;;;;;;;18.80;14.60;;;;;;4989220;28;20277;-73
2022/04/24 14:31:46;;;;;;;;;;;19.10;16.30;;;;;;4972578;28;19948;-73